sensor_id;sensor_type;location;lat;lon;timestamp;P1;durP1;ratioP1;P2;durP2;ratioP2
78346;SDS011;67803;41.330;69.282;2023-10-13T00:02:01;27.85;;;6.80;;
78346;SDS011;67803;41.330;69.282;2023-10-13T00:04:35;34.70;;;7.65;;
78346;SDS011;67803;41.330;69.282;2023-10-13T00:07:06;22.42;;;6.20;;
78346;SDS011;67803;41.330;69.282;2023-10-13T00:09:40;24.92;;;6.70;;
78346;SDS011;67803;41.330;69.282;2023-10-13T00:12:11;25.25;;;6.57;;
78346;SDS011;67803;41.330;69.282;2023-10-13T00:14:44;20.60;;;6.57;;
78346;SDS011;67803;41.330;69.282;2023-10-13T00:17:15;15.43;;;6.03;;
78346;SDS011;67803;41.330;69.282;2023-10-13T00:19:50;30.20;;;7.13;;
78346;SDS011;67803;41.330;69.282;2023-10-13T00:22:24;30.10;;;6.68;;
78346;SDS011;67803;41.330;69.282;2023-10-13T00:24:55;18.77;;;6.35;;
78346;SDS011;67803;41.330;69.282;2023-10-13T00:27:29;21.70;;;6.30;;
78346;SDS011;67803;41.330;69.282;2023-10-13T00:30:01;21.52;;;6.90;;
78346;SDS011;67803;41.330;69.282;2023-10-13T00:32:49;21.15;;;6.90;;
78346;SDS011;67803;41.330;69.282;2023-10-13T00:35:27;15.63;;;5.95;;
78346;SDS011;67803;41.330;69.282;2023-10-13T00:38:07;19.75;;;6.57;;
78346;SDS011;67803;41.330;69.282;2023-10-13T00:40:47;20.75;;;6.45;;
78346;SDS011;67803;41.330;69.282;2023-10-13T00:43:24;18.63;;;6.03;;
78346;SDS011;67803;41.330;69.282;2023-10-13T00:45:56;10.20;;;5.28;;
78346;SDS011;67803;41.330;69.282;2023-10-13T00:48:28;19.27;;;5.65;;
78346;SDS011;67803;41.330;69.282;2023-10-13T00:51:06;16.48;;;5.00;;
78346;SDS011;67803;41.330;69.282;2023-10-13T00:53:37;16.00;;;5.13;;
78346;SDS011;67803;41.330;69.282;2023-10-13T00:56:14;12.55;;;5.10;;
78346;SDS011;67803;41.330;69.282;2023-10-13T00:58:57;17.40;;;5.82;;
78346;SDS011;67803;41.330;69.282;2023-10-13T01:01:32;19.55;;;6.22;;
78346;SDS011;67803;41.330;69.282;2023-10-13T01:04:05;18.77;;;5.65;;
78346;SDS011;67803;41.330;69.282;2023-10-13T01:06:39;36.47;;;7.13;;
78346;SDS011;67803;41.330;69.282;2023-10-13T01:09:10;19.45;;;6.05;;
78346;SDS011;67803;41.330;69.282;2023-10-13T01:11:47;9.27;;;4.80;;
78346;SDS011;67803;41.330;69.282;2023-10-13T01:14:22;21.52;;;6.10;;
78346;SDS011;67803;41.330;69.282;2023-10-13T01:16:57;14.80;;;5.18;;
78346;SDS011;67803;41.330;69.282;2023-10-13T01:19:29;9.68;;;3.38;;
78346;SDS011;67803;41.330;69.282;2023-10-13T01:22:00;17.23;;;3.33;;
78346;SDS011;67803;41.330;69.282;2023-10-13T01:24:34;9.95;;;2.85;;
78346;SDS011;67803;41.330;69.282;2023-10-13T01:27:06;9.18;;;3.10;;
78346;SDS011;67803;41.330;69.282;2023-10-13T01:29:50;7.00;;;3.35;;
78346;SDS011;67803;41.330;69.282;2023-10-13T01:32:26;6.85;;;3.30;;
78346;SDS011;67803;41.330;69.282;2023-10-13T01:34:57;7.13;;;3.80;;
78346;SDS011;67803;41.330;69.282;2023-10-13T01:37:35;7.95;;;4.00;;
78346;SDS011;67803;41.330;69.282;2023-10-13T01:40:06;8.43;;;3.60;;
78346;SDS011;67803;41.330;69.282;2023-10-13T01:42:38;7.80;;;3.60;;
78346;SDS011;67803;41.330;69.282;2023-10-13T01:45:09;11.65;;;4.18;;
78346;SDS011;67803;41.330;69.282;2023-10-13T01:47:40;9.93;;;4.43;;
78346;SDS011;67803;41.330;69.282;2023-10-13T01:50:11;7.50;;;3.35;;
78346;SDS011;67803;41.330;69.282;2023-10-13T01:52:51;7.03;;;2.92;;
78346;SDS011;67803;41.330;69.282;2023-10-13T01:55:30;8.32;;;2.95;;
78346;SDS011;67803;41.330;69.282;2023-10-13T01:58:01;7.28;;;3.67;;
78346;SDS011;67803;41.330;69.282;2023-10-13T02:00:32;5.07;;;2.53;;
78346;SDS011;67803;41.330;69.282;2023-10-13T02:03:10;4.30;;;2.58;;
78346;SDS011;67803;41.330;69.282;2023-10-13T02:05:48;5.50;;;2.72;;
78346;SDS011;67803;41.330;69.282;2023-10-13T02:08:20;5.55;;;3.05;;
78346;SDS011;67803;41.330;69.282;2023-10-13T02:10:54;7.03;;;2.85;;
78346;SDS011;67803;41.330;69.282;2023-10-13T02:13:25;4.15;;;2.65;;
78346;SDS011;67803;41.330;69.282;2023-10-13T02:15:57;7.03;;;3.35;;
78346;SDS011;67803;41.330;69.282;2023-10-13T02:18:28;6.18;;;3.00;;
78346;SDS011;67803;41.330;69.282;2023-10-13T02:21:04;4.13;;;2.30;;
78346;SDS011;67803;41.330;69.282;2023-10-13T02:23:35;6.82;;;2.83;;
78346;SDS011;67803;41.330;69.282;2023-10-13T02:26:13;4.20;;;2.42;;
78346;SDS011;67803;41.330;69.282;2023-10-13T02:29:01;4.88;;;2.78;;
78346;SDS011;67803;41.330;69.282;2023-10-13T02:31:39;7.20;;;3.10;;
78346;SDS011;67803;41.330;69.282;2023-10-13T02:34:10;5.78;;;3.03;;
78346;SDS011;67803;41.330;69.282;2023-10-13T02:36:43;5.95;;;3.35;;
78346;SDS011;67803;41.330;69.282;2023-10-13T02:39:19;4.05;;;2.47;;
78346;SDS011;67803;41.330;69.282;2023-10-13T02:41:56;4.90;;;3.03;;
78346;SDS011;67803;41.330;69.282;2023-10-13T02:44:27;5.82;;;3.30;;
78346;SDS011;67803;41.330;69.282;2023-10-13T02:47:01;6.95;;;3.53;;
78346;SDS011;67803;41.330;69.282;2023-10-13T02:49:33;5.93;;;3.05;;
78346;SDS011;67803;41.330;69.282;2023-10-13T02:52:07;4.20;;;2.28;;
78346;SDS011;67803;41.330;69.282;2023-10-13T02:54:40;5.25;;;2.72;;
78346;SDS011;67803;41.330;69.282;2023-10-13T02:57:17;3.45;;;2.15;;
78346;SDS011;67803;41.330;69.282;2023-10-13T02:59:48;5.32;;;2.20;;
78346;SDS011;67803;41.330;69.282;2023-10-13T03:02:28;5.15;;;3.10;;
78346;SDS011;67803;41.330;69.282;2023-10-13T03:05:00;3.63;;;2.22;;
78346;SDS011;67803;41.330;69.282;2023-10-13T03:07:40;3.30;;;2.17;;
78346;SDS011;67803;41.330;69.282;2023-10-13T03:10:14;3.47;;;1.70;;
78346;SDS011;67803;41.330;69.282;2023-10-13T03:12:46;3.20;;;2.00;;
78346;SDS011;67803;41.330;69.282;2023-10-13T03:15:19;3.72;;;2.15;;
78346;SDS011;67803;41.330;69.282;2023-10-13T03:17:53;3.90;;;1.90;;
78346;SDS011;67803;41.330;69.282;2023-10-13T03:20:25;4.13;;;2.70;;
78346;SDS011;67803;41.330;69.282;2023-10-13T03:23:05;4.55;;;2.70;;
78346;SDS011;67803;41.330;69.282;2023-10-13T03:25:39;3.95;;;2.22;;
78346;SDS011;67803;41.330;69.282;2023-10-13T03:28:13;3.17;;;1.95;;
78346;SDS011;67803;41.330;69.282;2023-10-13T03:30:47;4.35;;;2.40;;
78346;SDS011;67803;41.330;69.282;2023-10-13T03:33:23;4.93;;;2.78;;
78346;SDS011;67803;41.330;69.282;2023-10-13T03:35:56;4.95;;;2.70;;
78346;SDS011;67803;41.330;69.282;2023-10-13T03:38:36;3.33;;;2.28;;
78346;SDS011;67803;41.330;69.282;2023-10-13T03:41:06;4.20;;;2.47;;
78346;SDS011;67803;41.330;69.282;2023-10-13T03:43:39;4.97;;;2.67;;
78346;SDS011;67803;41.330;69.282;2023-10-13T03:46:15;3.63;;;2.60;;
78346;SDS011;67803;41.330;69.282;2023-10-13T03:48:51;3.05;;;1.98;;
78346;SDS011;67803;41.330;69.282;2023-10-13T03:51:24;6.68;;;2.08;;
78346;SDS011;67803;41.330;69.282;2023-10-13T03:54:01;10.02;;;3.78;;
78346;SDS011;67803;41.330;69.282;2023-10-13T03:56:37;2.90;;;2.08;;
78346;SDS011;67803;41.330;69.282;2023-10-13T03:59:11;3.45;;;1.92;;
78346;SDS011;67803;41.330;69.282;2023-10-13T04:01:46;4.00;;;2.40;;
78346;SDS011;67803;41.330;69.282;2023-10-13T04:04:18;5.35;;;2.13;;
78346;SDS011;67803;41.330;69.282;2023-10-13T04:07:09;6.40;;;2.13;;
78346;SDS011;67803;41.330;69.282;2023-10-13T04:09:40;4.00;;;2.10;;
78346;SDS011;67803;41.330;69.282;2023-10-13T04:12:19;7.50;;;1.83;;
78346;SDS011;67803;41.330;69.282;2023-10-13T04:15:13;3.67;;;2.67;;
78346;SDS011;67803;41.330;69.282;2023-10-13T04:17:48;3.58;;;2.10;;
78346;SDS011;67803;41.330;69.282;2023-10-13T04:20:21;2.47;;;1.98;;
78346;SDS011;67803;41.330;69.282;2023-10-13T04:23:08;3.20;;;2.00;;
78346;SDS011;67803;41.330;69.282;2023-10-13T04:25:49;2.60;;;1.80;;
78346;SDS011;67803;41.330;69.282;2023-10-13T04:28:20;2.60;;;1.80;;
78346;SDS011;67803;41.330;69.282;2023-10-13T04:30:57;4.20;;;1.75;;
78346;SDS011;67803;41.330;69.282;2023-10-13T04:33:29;4.55;;;2.22;;
78346;SDS011;67803;41.330;69.282;2023-10-13T04:36:07;2.28;;;1.50;;
78346;SDS011;67803;41.330;69.282;2023-10-13T04:38:44;2.42;;;1.70;;
78346;SDS011;67803;41.330;69.282;2023-10-13T04:41:28;3.17;;;1.67;;
78346;SDS011;67803;41.330;69.282;2023-10-13T04:44:20;2.25;;;1.35;;
78346;SDS011;67803;41.330;69.282;2023-10-13T04:47:11;7.00;;;2.50;;
78346;SDS011;67803;41.330;69.282;2023-10-13T04:49:52;4.90;;;1.85;;
78346;SDS011;67803;41.330;69.282;2023-10-13T04:52:23;3.22;;;1.80;;
78346;SDS011;67803;41.330;69.282;2023-10-13T04:55:29;3.85;;;1.80;;
78346;SDS011;67803;41.330;69.282;2023-10-13T04:58:24;4.63;;;2.05;;
78346;SDS011;67803;41.330;69.282;2023-10-13T05:01:04;6.40;;;2.20;;
78346;SDS011;67803;41.330;69.282;2023-10-13T05:03:53;4.60;;;2.17;;
78346;SDS011;67803;41.330;69.282;2023-10-13T05:06:39;2.55;;;2.03;;
78346;SDS011;67803;41.330;69.282;2023-10-13T05:09:15;4.82;;;2.47;;
78346;SDS011;67803;41.330;69.282;2023-10-13T05:12:04;5.65;;;2.95;;
78346;SDS011;67803;41.330;69.282;2023-10-13T05:14:53;3.35;;;2.42;;
78346;SDS011;67803;41.330;69.282;2023-10-13T05:17:42;2.95;;;2.65;;
78346;SDS011;67803;41.330;69.282;2023-10-13T05:20:31;3.10;;;2.55;;
78346;SDS011;67803;41.330;69.282;2023-10-13T05:23:20;5.53;;;3.20;;
78346;SDS011;67803;41.330;69.282;2023-10-13T05:26:09;4.85;;;2.97;;
78346;SDS011;67803;41.330;69.282;2023-10-13T05:28:58;4.90;;;3.42;;
78346;SDS011;67803;41.330;69.282;2023-10-13T05:31:47;7.60;;;4.70;;
78346;SDS011;67803;41.330;69.282;2023-10-13T05:34:36;4.07;;;3.40;;
78346;SDS011;67803;41.330;69.282;2023-10-13T05:37:24;7.68;;;3.30;;
78346;SDS011;67803;41.330;69.282;2023-10-13T05:40:13;5.78;;;3.05;;
78346;SDS011;67803;41.330;69.282;2023-10-13T05:43:03;5.05;;;3.40;;
78346;SDS011;67803;41.330;69.282;2023-10-13T05:45:55;3.00;;;2.20;;
78346;SDS011;67803;41.330;69.282;2023-10-13T05:48:52;2.60;;;2.05;;
78346;SDS011;67803;41.330;69.282;2023-10-13T05:51:30;2.60;;;1.88;;
78346;SDS011;67803;41.330;69.282;2023-10-13T05:54:04;2.90;;;1.98;;
78346;SDS011;67803;41.330;69.282;2023-10-13T05:56:44;2.15;;;1.63;;
78346;SDS011;67803;41.330;69.282;2023-10-13T05:59:37;2.65;;;1.90;;
78346;SDS011;67803;41.330;69.282;2023-10-13T06:02:27;2.58;;;2.03;;
78346;SDS011;67803;41.330;69.282;2023-10-13T06:05:16;3.47;;;2.00;;
78346;SDS011;67803;41.330;69.282;2023-10-13T06:08:05;5.05;;;2.60;;
78346;SDS011;67803;41.330;69.282;2023-10-13T06:11:00;3.70;;;1.50;;
78346;SDS011;67803;41.330;69.282;2023-10-13T06:13:49;2.92;;;1.73;;
78346;SDS011;67803;41.330;69.282;2023-10-13T06:16:38;4.15;;;1.60;;
78346;SDS011;67803;41.330;69.282;2023-10-13T06:19:27;3.17;;;1.23;;
78346;SDS011;67803;41.330;69.282;2023-10-13T06:22:16;3.78;;;1.50;;
78346;SDS011;67803;41.330;69.282;2023-10-13T06:25:05;1.58;;;1.05;;
78346;SDS011;67803;41.330;69.282;2023-10-13T06:27:54;1.95;;;1.23;;
78346;SDS011;67803;41.330;69.282;2023-10-13T06:30:52;1.88;;;1.27;;
78346;SDS011;67803;41.330;69.282;2023-10-13T06:33:26;2.38;;;1.48;;
78346;SDS011;67803;41.330;69.282;2023-10-13T06:36:04;3.75;;;2.75;;
78346;SDS011;67803;41.330;69.282;2023-10-13T06:38:39;6.00;;;2.53;;
78346;SDS011;67803;41.330;69.282;2023-10-13T06:41:11;4.05;;;2.67;;
78346;SDS011;67803;41.330;69.282;2023-10-13T06:43:50;9.20;;;3.25;;
78346;SDS011;67803;41.330;69.282;2023-10-13T06:46:29;10.48;;;4.07;;
78346;SDS011;67803;41.330;69.282;2023-10-13T06:49:04;6.15;;;3.15;;
78346;SDS011;67803;41.330;69.282;2023-10-13T06:51:35;6.25;;;3.10;;
78346;SDS011;67803;41.330;69.282;2023-10-13T06:54:08;5.50;;;2.83;;
78346;SDS011;67803;41.330;69.282;2023-10-13T06:56:50;4.68;;;2.85;;
78346;SDS011;67803;41.330;69.282;2023-10-13T06:59:23;4.70;;;2.42;;
78346;SDS011;67803;41.330;69.282;2023-10-13T07:01:56;6.00;;;2.60;;
78346;SDS011;67803;41.330;69.282;2023-10-13T07:04:33;4.05;;;2.70;;
78346;SDS011;67803;41.330;69.282;2023-10-13T07:07:05;5.05;;;2.47;;
78346;SDS011;67803;41.330;69.282;2023-10-13T07:09:42;3.60;;;2.05;;
78346;SDS011;67803;41.330;69.282;2023-10-13T07:12:28;3.15;;;1.75;;
78346;SDS011;67803;41.330;69.282;2023-10-13T07:15:03;3.72;;;1.58;;
78346;SDS011;67803;41.330;69.282;2023-10-13T07:17:49;2.63;;;1.30;;
78346;SDS011;67803;41.330;69.282;2023-10-13T07:20:26;3.17;;;1.20;;
78346;SDS011;67803;41.330;69.282;2023-10-13T07:23:00;2.75;;;0.75;;
78346;SDS011;67803;41.330;69.282;2023-10-13T07:25:34;1.45;;;0.80;;
78346;SDS011;67803;41.330;69.282;2023-10-13T07:28:11;2.00;;;0.70;;
78346;SDS011;67803;41.330;69.282;2023-10-13T07:30:42;2.83;;;0.88;;
78346;SDS011;67803;41.330;69.282;2023-10-13T07:33:20;1.48;;;0.80;;
78346;SDS011;67803;41.330;69.282;2023-10-13T07:38:53;2.28;;;1.00;;
78346;SDS011;67803;41.330;69.282;2023-10-13T07:41:51;2.05;;;1.02;;
78346;SDS011;67803;41.330;69.282;2023-10-13T07:44:24;1.70;;;0.77;;
78346;SDS011;67803;41.330;69.282;2023-10-13T07:46:55;2.42;;;0.82;;
78346;SDS011;67803;41.330;69.282;2023-10-13T07:49:33;1.00;;;0.73;;
78346;SDS011;67803;41.330;69.282;2023-10-13T07:52:07;1.27;;;0.70;;
78346;SDS011;67803;41.330;69.282;2023-10-13T07:54:50;2.65;;;0.80;;
78346;SDS011;67803;41.330;69.282;2023-10-13T07:57:41;2.00;;;1.00;;
78346;SDS011;67803;41.330;69.282;2023-10-13T08:00:24;2.00;;;1.25;;
78346;SDS011;67803;41.330;69.282;2023-10-13T08:02:58;4.43;;;1.20;;
78346;SDS011;67803;41.330;69.282;2023-10-13T08:05:58;2.22;;;1.08;;
78346;SDS011;67803;41.330;69.282;2023-10-13T08:08:37;2.80;;;1.10;;
78346;SDS011;67803;41.330;69.282;2023-10-13T08:11:13;3.00;;;1.00;;
78346;SDS011;67803;41.330;69.282;2023-10-13T08:13:54;1.77;;;0.93;;
78346;SDS011;67803;41.330;69.282;2023-10-13T08:19:21;1.90;;;1.02;;
78346;SDS011;67803;41.330;69.282;2023-10-13T08:22:02;1.10;;;0.70;;
78346;SDS011;67803;41.330;69.282;2023-10-13T08:24:48;1.42;;;0.70;;
78346;SDS011;67803;41.330;69.282;2023-10-13T08:27:20;2.50;;;0.63;;
78346;SDS011;67803;41.330;69.282;2023-10-13T08:30:26;0.73;;;0.55;;
78346;SDS011;67803;41.330;69.282;2023-10-13T08:33:00;2.60;;;0.70;;
78346;SDS011;67803;41.330;69.282;2023-10-13T08:38:46;1.77;;;0.88;;
78346;SDS011;67803;41.330;69.282;2023-10-13T08:41:25;3.10;;;1.05;;
78346;SDS011;67803;41.330;69.282;2023-10-13T08:44:01;1.08;;;0.70;;
78346;SDS011;67803;41.330;69.282;2023-10-13T08:46:34;2.20;;;0.95;;
78346;SDS011;67803;41.330;69.282;2023-10-13T08:49:33;2.45;;;0.98;;
78346;SDS011;67803;41.330;69.282;2023-10-13T08:52:10;4.82;;;1.10;;
78346;SDS011;67803;41.330;69.282;2023-10-13T08:55:01;1.95;;;1.10;;
78346;SDS011;67803;41.330;69.282;2023-10-13T08:57:55;3.58;;;0.93;;
78346;SDS011;67803;41.330;69.282;2023-10-13T09:00:33;2.10;;;0.65;;
78346;SDS011;67803;41.330;69.282;2023-10-13T09:03:24;3.17;;;0.95;;
78346;SDS011;67803;41.330;69.282;2023-10-13T09:06:10;2.28;;;1.00;;
78346;SDS011;67803;41.330;69.282;2023-10-13T09:08:45;2.10;;;0.90;;
78346;SDS011;67803;41.330;69.282;2023-10-13T09:14:28;0.90;;;0.70;;
78346;SDS011;67803;41.330;69.282;2023-10-13T09:17:10;2.35;;;0.80;;
78346;SDS011;67803;41.330;69.282;2023-10-13T09:22:29;2.17;;;0.73;;
78346;SDS011;67803;41.330;69.282;2023-10-13T09:25:08;1.80;;;0.80;;
78346;SDS011;67803;41.330;69.282;2023-10-13T09:27:44;2.22;;;0.80;;
78346;SDS011;67803;41.330;69.282;2023-10-13T09:30:22;1.88;;;0.93;;
78346;SDS011;67803;41.330;69.282;2023-10-13T09:33:00;1.75;;;0.85;;
78346;SDS011;67803;41.330;69.282;2023-10-13T09:35:32;1.42;;;0.95;;
78346;SDS011;67803;41.330;69.282;2023-10-13T09:38:07;2.42;;;0.80;;
78346;SDS011;67803;41.330;69.282;2023-10-13T09:40:42;3.00;;;0.80;;
78346;SDS011;67803;41.330;69.282;2023-10-13T09:43:27;7.88;;;0.82;;
78346;SDS011;67803;41.330;69.282;2023-10-13T09:46:02;1.70;;;0.70;;
78346;SDS011;67803;41.330;69.282;2023-10-13T09:48:37;1.15;;;0.50;;
78346;SDS011;67803;41.330;69.282;2023-10-13T09:51:16;3.00;;;0.50;;
78346;SDS011;67803;41.330;69.282;2023-10-13T09:54:13;2.22;;;0.70;;
78346;SDS011;67803;41.330;69.282;2023-10-13T09:56:48;2.15;;;0.80;;
78346;SDS011;67803;41.330;69.282;2023-10-13T09:59:27;0.70;;;0.60;;
78346;SDS011;67803;41.330;69.282;2023-10-13T10:02:05;2.72;;;0.88;;
78346;SDS011;67803;41.330;69.282;2023-10-13T10:04:39;1.88;;;0.95;;
78346;SDS011;67803;41.330;69.282;2023-10-13T10:07:25;2.75;;;0.73;;
78346;SDS011;67803;41.330;69.282;2023-10-13T10:09:59;2.45;;;1.08;;
78346;SDS011;67803;41.330;69.282;2023-10-13T10:15:46;1.75;;;0.93;;
78346;SDS011;67803;41.330;69.282;2023-10-13T10:18:21;5.53;;;0.80;;
78346;SDS011;67803;41.330;69.282;2023-10-13T10:21:04;2.47;;;0.85;;
78346;SDS011;67803;41.330;69.282;2023-10-13T10:23:41;1.25;;;1.00;;
78346;SDS011;67803;41.330;69.282;2023-10-13T10:26:23;1.85;;;1.00;;
78346;SDS011;67803;41.330;69.282;2023-10-13T10:28:55;2.95;;;0.95;;
78346;SDS011;67803;41.330;69.282;2023-10-13T10:31:32;4.72;;;1.20;;
78346;SDS011;67803;41.330;69.282;2023-10-13T10:34:17;1.38;;;0.90;;
78346;SDS011;67803;41.330;69.282;2023-10-13T10:36:55;1.33;;;1.00;;
78346;SDS011;67803;41.330;69.282;2023-10-13T10:39:35;1.85;;;1.00;;
78346;SDS011;67803;41.330;69.282;2023-10-13T10:42:22;1.85;;;1.02;;
78346;SDS011;67803;41.330;69.282;2023-10-13T10:44:54;1.88;;;0.95;;
78346;SDS011;67803;41.330;69.282;2023-10-13T10:47:35;2.90;;;1.27;;
78346;SDS011;67803;41.330;69.282;2023-10-13T10:50:10;3.13;;;1.13;;
78346;SDS011;67803;41.330;69.282;2023-10-13T10:52:50;2.28;;;1.00;;
78346;SDS011;67803;41.330;69.282;2023-10-13T10:55:21;3.42;;;1.40;;
78346;SDS011;67803;41.330;69.282;2023-10-13T11:00:26;2.15;;;1.27;;
78346;SDS011;67803;41.330;69.282;2023-10-13T11:03:12;2.15;;;1.05;;
78346;SDS011;67803;41.330;69.282;2023-10-13T11:05:44;2.53;;;1.08;;
78346;SDS011;67803;41.330;69.282;2023-10-13T11:08:24;1.45;;;1.05;;
78346;SDS011;67803;41.330;69.282;2023-10-13T11:11:30;1.45;;;1.20;;
78346;SDS011;67803;41.330;69.282;2023-10-13T11:14:05;3.03;;;1.20;;
78346;SDS011;67803;41.330;69.282;2023-10-13T11:16:48;2.65;;;1.42;;
78346;SDS011;67803;41.330;69.282;2023-10-13T11:19:36;2.30;;;1.30;;
78346;SDS011;67803;41.330;69.282;2023-10-13T11:22:10;2.33;;;1.52;;
78346;SDS011;67803;41.330;69.282;2023-10-13T11:24:42;3.35;;;1.50;;
78346;SDS011;67803;41.330;69.282;2023-10-13T11:27:16;3.03;;;1.30;;
78346;SDS011;67803;41.330;69.282;2023-10-13T11:30:12;3.15;;;1.67;;
78346;SDS011;67803;41.330;69.282;2023-10-13T11:33:00;1.98;;;1.33;;
78346;SDS011;67803;41.330;69.282;2023-10-13T11:35:34;4.03;;;1.23;;
78346;SDS011;67803;41.330;69.282;2023-10-13T11:38:29;4.05;;;1.35;;
78346;SDS011;67803;41.330;69.282;2023-10-13T11:41:12;2.40;;;1.27;;
78346;SDS011;67803;41.330;69.282;2023-10-13T11:43:45;2.45;;;1.20;;
78346;SDS011;67803;41.330;69.282;2023-10-13T11:46:26;2.00;;;0.90;;
78346;SDS011;67803;41.330;69.282;2023-10-13T11:49:07;2.35;;;1.10;;
78346;SDS011;67803;41.330;69.282;2023-10-13T11:51:47;1.45;;;0.98;;
78346;SDS011;67803;41.330;69.282;2023-10-13T11:54:19;3.28;;;0.93;;
78346;SDS011;67803;41.330;69.282;2023-10-13T11:56:52;7.60;;;1.27;;
78346;SDS011;67803;41.330;69.282;2023-10-13T11:59:22;2.03;;;1.15;;
78346;SDS011;67803;41.330;69.282;2023-10-13T12:01:57;1.95;;;0.90;;
78346;SDS011;67803;41.330;69.282;2023-10-13T12:04:46;2.05;;;1.20;;
78346;SDS011;67803;41.330;69.282;2023-10-13T12:07:17;1.30;;;1.00;;
78346;SDS011;67803;41.330;69.282;2023-10-13T12:09:57;3.30;;;1.25;;
78346;SDS011;67803;41.330;69.282;2023-10-13T12:12:29;4.00;;;1.08;;
78346;SDS011;67803;41.330;69.282;2023-10-13T12:15:10;12.88;;;1.30;;
78346;SDS011;67803;41.330;69.282;2023-10-13T12:17:55;7.10;;;1.00;;
78346;SDS011;67803;41.330;69.282;2023-10-13T12:20:28;1.95;;;1.00;;
78346;SDS011;67803;41.330;69.282;2023-10-13T12:23:06;2.63;;;1.42;;
78346;SDS011;67803;41.330;69.282;2023-10-13T12:25:40;1.83;;;1.40;;
78346;SDS011;67803;41.330;69.282;2023-10-13T12:28:29;2.60;;;1.88;;
78346;SDS011;67803;41.330;69.282;2023-10-13T12:31:03;3.60;;;1.98;;
78346;SDS011;67803;41.330;69.282;2023-10-13T12:33:37;3.22;;;2.22;;
78346;SDS011;67803;41.330;69.282;2023-10-13T12:36:10;4.85;;;2.40;;
78346;SDS011;67803;41.330;69.282;2023-10-13T12:38:44;6.10;;;2.63;;
78346;SDS011;67803;41.330;69.282;2023-10-13T12:41:18;4.60;;;2.45;;
78346;SDS011;67803;41.330;69.282;2023-10-13T12:44:08;8.68;;;3.05;;
78346;SDS011;67803;41.330;69.282;2023-10-13T12:46:57;4.93;;;2.25;;
78346;SDS011;67803;41.330;69.282;2023-10-13T12:49:47;4.50;;;3.28;;
78346;SDS011;67803;41.330;69.282;2023-10-13T12:52:18;5.72;;;3.17;;
78346;SDS011;67803;41.330;69.282;2023-10-13T12:55:02;6.55;;;2.58;;
78346;SDS011;67803;41.330;69.282;2023-10-13T12:57:37;3.42;;;2.80;;
78346;SDS011;67803;41.330;69.282;2023-10-13T13:00:13;7.30;;;2.47;;
78346;SDS011;67803;41.330;69.282;2023-10-13T13:02:51;5.75;;;2.92;;
78346;SDS011;67803;41.330;69.282;2023-10-13T13:05:23;6.57;;;2.65;;
78346;SDS011;67803;41.330;69.282;2023-10-13T13:07:58;4.45;;;2.80;;
78346;SDS011;67803;41.330;69.282;2023-10-13T13:10:30;5.20;;;2.85;;
78346;SDS011;67803;41.330;69.282;2023-10-13T13:13:07;4.18;;;2.63;;
78346;SDS011;67803;41.330;69.282;2023-10-13T13:15:39;3.85;;;2.25;;
78346;SDS011;67803;41.330;69.282;2023-10-13T13:18:10;4.65;;;2.70;;
78346;SDS011;67803;41.330;69.282;2023-10-13T13:20:41;9.02;;;2.63;;
78346;SDS011;67803;41.330;69.282;2023-10-13T13:23:25;4.63;;;2.60;;
78346;SDS011;67803;41.330;69.282;2023-10-13T13:25:56;5.03;;;2.45;;
78346;SDS011;67803;41.330;69.282;2023-10-13T13:28:27;3.50;;;2.40;;
78346;SDS011;67803;41.330;69.282;2023-10-13T13:31:08;6.50;;;2.30;;
78346;SDS011;67803;41.330;69.282;2023-10-13T13:33:39;4.20;;;1.88;;
78346;SDS011;67803;41.330;69.282;2023-10-13T13:36:13;3.42;;;1.80;;
78346;SDS011;67803;41.330;69.282;2023-10-13T13:38:46;5.35;;;2.28;;
78346;SDS011;67803;41.330;69.282;2023-10-13T13:41:19;9.85;;;2.53;;
78346;SDS011;67803;41.330;69.282;2023-10-13T13:43:50;3.67;;;2.20;;
78346;SDS011;67803;41.330;69.282;2023-10-13T13:46:25;3.08;;;2.28;;
78346;SDS011;67803;41.330;69.282;2023-10-13T13:49:03;3.28;;;1.92;;
78346;SDS011;67803;41.330;69.282;2023-10-13T13:51:37;5.95;;;2.22;;
78346;SDS011;67803;41.330;69.282;2023-10-13T13:54:09;3.92;;;2.53;;
78346;SDS011;67803;41.330;69.282;2023-10-13T13:56:40;4.70;;;2.70;;
78346;SDS011;67803;41.330;69.282;2023-10-13T13:59:11;4.90;;;2.63;;
78346;SDS011;67803;41.330;69.282;2023-10-13T14:01:46;3.70;;;2.80;;
78346;SDS011;67803;41.330;69.282;2023-10-13T14:04:17;5.05;;;2.50;;
78346;SDS011;67803;41.330;69.282;2023-10-13T14:06:48;9.02;;;2.67;;
78346;SDS011;67803;41.330;69.282;2023-10-13T14:09:21;5.70;;;3.00;;
78346;SDS011;67803;41.330;69.282;2023-10-13T14:12:06;5.30;;;2.88;;
78346;SDS011;67803;41.330;69.282;2023-10-13T14:14:56;5.55;;;2.63;;
78346;SDS011;67803;41.330;69.282;2023-10-13T14:17:27;8.32;;;3.17;;
78346;SDS011;67803;41.330;69.282;2023-10-13T14:20:06;6.35;;;3.30;;
78346;SDS011;67803;41.330;69.282;2023-10-13T14:22:45;4.72;;;3.08;;
78346;SDS011;67803;41.330;69.282;2023-10-13T14:25:20;4.65;;;3.55;;
78346;SDS011;67803;41.330;69.282;2023-10-13T14:27:55;7.07;;;3.45;;
78346;SDS011;67803;41.330;69.282;2023-10-13T14:30:29;6.43;;;3.35;;
78346;SDS011;67803;41.330;69.282;2023-10-13T14:33:01;6.80;;;3.20;;
78346;SDS011;67803;41.330;69.282;2023-10-13T14:35:35;7.43;;;3.85;;
78346;SDS011;67803;41.330;69.282;2023-10-13T14:38:06;6.65;;;3.55;;
78346;SDS011;67803;41.330;69.282;2023-10-13T14:40:37;6.53;;;3.88;;
78346;SDS011;67803;41.330;69.282;2023-10-13T14:43:08;6.07;;;3.88;;
78346;SDS011;67803;41.330;69.282;2023-10-13T14:45:40;7.60;;;4.20;;
78346;SDS011;67803;41.330;69.282;2023-10-13T14:48:11;7.93;;;3.90;;
78346;SDS011;67803;41.330;69.282;2023-10-13T14:50:43;8.85;;;3.97;;
78346;SDS011;67803;41.330;69.282;2023-10-13T14:53:15;6.53;;;3.63;;
78346;SDS011;67803;41.330;69.282;2023-10-13T14:55:49;6.20;;;3.80;;
78346;SDS011;67803;41.330;69.282;2023-10-13T14:58:21;6.10;;;3.40;;
78346;SDS011;67803;41.330;69.282;2023-10-13T15:00:56;5.93;;;3.55;;
78346;SDS011;67803;41.330;69.282;2023-10-13T15:03:30;6.07;;;3.70;;
78346;SDS011;67803;41.330;69.282;2023-10-13T15:06:14;5.78;;;3.38;;
78346;SDS011;67803;41.330;69.282;2023-10-13T15:08:47;6.22;;;3.55;;
78346;SDS011;67803;41.330;69.282;2023-10-13T15:11:19;5.13;;;3.80;;
78346;SDS011;67803;41.330;69.282;2023-10-13T15:13:50;8.65;;;4.63;;
78346;SDS011;67803;41.330;69.282;2023-10-13T15:16:23;8.10;;;4.57;;
78346;SDS011;67803;41.330;69.282;2023-10-13T15:18:55;9.70;;;5.05;;
78346;SDS011;67803;41.330;69.282;2023-10-13T15:21:27;6.53;;;4.35;;
78346;SDS011;67803;41.330;69.282;2023-10-13T15:24:10;8.05;;;4.53;;
78346;SDS011;67803;41.330;69.282;2023-10-13T15:26:45;6.40;;;3.97;;
78346;SDS011;67803;41.330;69.282;2023-10-13T15:29:19;8.43;;;4.30;;
78346;SDS011;67803;41.330;69.282;2023-10-13T15:32:06;10.07;;;5.55;;
78346;SDS011;67803;41.330;69.282;2023-10-13T15:34:56;10.27;;;5.53;;
78346;SDS011;67803;41.330;69.282;2023-10-13T15:37:28;8.18;;;5.10;;
78346;SDS011;67803;41.330;69.282;2023-10-13T15:39:59;7.90;;;5.47;;
78346;SDS011;67803;41.330;69.282;2023-10-13T15:42:34;10.25;;;5.88;;
78346;SDS011;67803;41.330;69.282;2023-10-13T15:45:11;9.95;;;6.10;;
78346;SDS011;67803;41.330;69.282;2023-10-13T15:47:49;8.10;;;5.40;;
78346;SDS011;67803;41.330;69.282;2023-10-13T15:50:20;10.18;;;5.47;;
78346;SDS011;67803;41.330;69.282;2023-10-13T15:52:51;8.48;;;5.32;;
78346;SDS011;67803;41.330;69.282;2023-10-13T15:55:23;11.10;;;5.68;;
78346;SDS011;67803;41.330;69.282;2023-10-13T15:57:56;8.27;;;5.00;;